createdAt,value
2023-09-11T00:00:09.791Z,6.75
2023-09-11T00:03:12.571Z,12.05
2023-09-11T00:06:15.333Z,9.80
2023-09-11T00:09:17.749Z,8.18
2023-09-11T00:12:20.222Z,7.70
2023-09-11T00:15:22.671Z,12.57
2023-09-11T00:18:25.679Z,12.65
2023-09-11T00:21:28.306Z,7.43
2023-09-11T00:24:30.712Z,8.73
2023-09-11T00:27:33.105Z,9.00
2023-09-11T00:30:38.754Z,7.18
2023-09-11T00:33:41.177Z,10.68
2023-09-11T00:36:43.705Z,11.32
2023-09-11T00:39:46.116Z,8.63
2023-09-11T00:42:48.681Z,8.97
2023-09-11T00:45:52.227Z,8.07
2023-09-11T00:48:57.116Z,9.45
2023-09-11T00:52:00.610Z,9.83
2023-09-11T00:55:03.827Z,10.55
2023-09-11T00:58:06.884Z,12.10
2023-09-11T01:01:12.017Z,9.90
2023-09-11T01:04:14.852Z,7.70
2023-09-11T01:07:18.490Z,9.90
2023-09-11T01:10:21.632Z,9.05
2023-09-11T01:13:25.279Z,10.07
2023-09-11T01:16:52.714Z,9.15
2023-09-11T01:20:15.359Z,9.52
2023-09-11T01:23:33.009Z,7.33
2023-09-11T01:26:52.456Z,8.38
2023-09-11T01:29:59.001Z,8.73
2023-09-11T01:33:01.813Z,7.18
2023-09-11T01:36:04.332Z,9.90
2023-09-11T01:39:07.062Z,10.48
2023-09-11T01:42:12.721Z,8.73
2023-09-11T01:45:16.525Z,9.33
2023-09-11T01:48:21.793Z,7.60
2023-09-11T01:51:25.984Z,8.52
2023-09-11T01:54:28.681Z,8.87
2023-09-11T01:57:31.168Z,7.72
2023-09-11T02:00:33.553Z,9.20
2023-09-11T02:03:36.148Z,7.50
2023-09-11T02:06:38.719Z,10.63
2023-09-11T02:09:41.298Z,10.93
2023-09-11T02:12:43.693Z,13.95
2023-09-11T02:15:46.211Z,10.37
2023-09-11T02:18:48.698Z,9.07
2023-09-11T02:21:51.055Z,8.00
2023-09-11T02:24:53.417Z,7.00
2023-09-11T02:27:55.883Z,8.35
2023-09-11T02:30:58.933Z,8.40
2023-09-11T02:34:01.438Z,8.82
2023-09-11T02:37:03.949Z,7.70
2023-09-11T02:40:07.717Z,11.68
2023-09-11T02:43:10.133Z,9.32
2023-09-11T02:46:12.609Z,8.70
2023-09-11T02:49:15.114Z,8.88
2023-09-11T02:52:17.497Z,10.00
2023-09-11T02:55:20.011Z,6.50
2023-09-11T02:58:22.419Z,12.00
2023-09-11T03:01:24.934Z,10.73
2023-09-11T03:04:27.513Z,7.78
2023-09-11T03:07:30.007Z,8.77
2023-09-11T03:10:32.896Z,8.25
2023-09-11T03:13:35.803Z,10.88
2023-09-11T03:16:44.913Z,7.47
2023-09-11T03:19:47.976Z,9.00
2023-09-11T03:22:50.461Z,10.32
2023-09-11T03:25:52.873Z,12.13
2023-09-11T03:28:55.594Z,14.20
2023-09-11T03:32:02.089Z,8.88
2023-09-11T03:35:05.312Z,7.40
2023-09-11T03:38:07.770Z,9.95
2023-09-11T03:41:10.903Z,9.43
2023-09-11T03:44:13.438Z,11.38
2023-09-11T03:47:15.913Z,6.93
2023-09-11T03:50:18.490Z,10.43
2023-09-11T03:53:21.295Z,5.78
2023-09-11T03:56:23.858Z,9.43
2023-09-11T03:59:26.741Z,8.45
2023-09-11T04:02:30.909Z,6.63
2023-09-11T04:05:33.412Z,8.55
2023-09-11T04:08:35.966Z,7.97
2023-09-11T04:11:38.565Z,8.80
2023-09-11T04:14:41.050Z,11.25
2023-09-11T04:17:43.660Z,12.30
2023-09-11T04:20:46.729Z,15.27
2023-09-11T04:23:49.232Z,10.27
2023-09-11T04:26:51.761Z,11.67
2023-09-11T04:29:54.657Z,11.00
2023-09-11T04:32:57.193Z,12.98
2023-09-11T04:36:00.528Z,12.38
2023-09-11T04:39:03.411Z,12.55
2023-09-11T04:42:05.948Z,13.38
2023-09-11T04:45:09.154Z,10.27
2023-09-11T04:48:11.744Z,10.73
2023-09-11T04:51:14.336Z,11.77
2023-09-11T04:54:16.928Z,13.05
2023-09-11T04:57:19.431Z,11.80
2023-09-11T05:00:22.029Z,14.30
2023-09-11T05:03:25.052Z,19.77
2023-09-11T05:06:27.673Z,16.45
2023-09-11T05:09:32.453Z,21.65
2023-09-11T05:12:35.277Z,54.70
2023-09-11T05:15:37.812Z,43.08
2023-09-11T05:18:40.685Z,42.20
2023-09-11T05:21:43.507Z,23.27
2023-09-11T05:24:45.938Z,24.33
2023-09-11T05:27:48.357Z,14.33
2023-09-11T05:30:51.464Z,10.43
2023-09-11T05:33:53.841Z,11.77
2023-09-11T05:36:56.366Z,8.63
2023-09-11T05:39:59.870Z,8.07
2023-09-11T05:43:03.045Z,10.80
2023-09-11T05:46:05.592Z,10.85
2023-09-11T05:49:08.070Z,7.90
2023-09-11T05:52:10.545Z,9.00
2023-09-11T05:55:13.089Z,10.75
2023-09-11T05:58:16.197Z,9.37
2023-09-11T06:01:19.157Z,10.40
2023-09-11T06:04:21.758Z,11.48
2023-09-11T06:07:24.221Z,10.27
2023-09-11T06:10:26.693Z,8.27
2023-09-11T06:13:29.170Z,11.38
2023-09-11T06:16:31.594Z,9.00
2023-09-11T06:19:34.023Z,11.63
2023-09-11T06:22:37.852Z,11.55
2023-09-11T06:25:40.275Z,9.35
2023-09-11T06:28:43.887Z,7.70
2023-09-11T06:31:46.412Z,6.88
2023-09-11T06:34:48.830Z,6.78
2023-09-11T06:37:51.242Z,10.23
2023-09-11T06:40:53.662Z,7.75
2023-09-11T06:43:57.244Z,8.55
2023-09-11T06:46:59.949Z,7.97
2023-09-11T06:50:04.105Z,12.87
2023-09-11T06:53:11.114Z,9.85
2023-09-11T06:56:13.734Z,12.07
2023-09-11T06:59:16.138Z,9.47
2023-09-11T07:02:18.551Z,8.55
2023-09-11T07:05:21.610Z,8.05
2023-09-11T07:08:24.055Z,11.82
2023-09-11T07:11:26.616Z,11.68
2023-09-11T07:14:29.470Z,12.73
2023-09-11T07:17:32.063Z,11.95
2023-09-11T07:20:34.701Z,9.90
2023-09-11T07:23:37.176Z,8.40
2023-09-11T07:26:39.676Z,13.10
2023-09-11T07:29:42.146Z,12.67
2023-09-11T07:32:44.905Z,8.57
2023-09-11T07:35:47.856Z,15.60
2023-09-11T07:38:50.493Z,12.75
2023-09-11T07:41:52.923Z,10.02
2023-09-11T07:44:55.344Z,7.07
2023-09-11T07:47:57.900Z,11.07
2023-09-11T07:51:00.374Z,15.73
2023-09-11T07:54:02.870Z,22.27
2023-09-11T07:57:05.615Z,21.95
2023-09-11T08:00:08.927Z,19.60
2023-09-11T08:03:11.974Z,21.15
2023-09-11T08:06:15.464Z,8.27
2023-09-11T08:09:17.965Z,9.50
2023-09-11T08:12:20.589Z,5.43
2023-09-11T08:15:23.245Z,8.68
2023-09-11T08:18:25.733Z,14.00
2023-09-11T08:21:28.265Z,7.43
2023-09-11T08:24:30.833Z,12.15
2023-09-11T08:27:33.229Z,10.13
2023-09-11T08:30:36.455Z,10.10
2023-09-11T08:33:53.903Z,8.32
2023-09-11T08:36:58.783Z,7.45
2023-09-11T08:40:01.255Z,7.18
2023-09-11T08:43:03.912Z,6.20
2023-09-11T08:46:10.944Z,6.75
2023-09-11T08:49:20.856Z,12.25
2023-09-11T08:52:23.591Z,9.80
2023-09-11T08:55:26.684Z,6.50
2023-09-11T08:58:32.608Z,7.90
2023-09-11T09:01:35.555Z,7.93
2023-09-11T09:04:40.069Z,7.00
2023-09-11T09:07:46.013Z,8.65
2023-09-11T09:10:49.547Z,5.30
2023-09-11T09:13:52.057Z,9.00
2023-09-11T09:16:55.061Z,8.10
2023-09-11T09:19:57.509Z,12.02
2023-09-11T09:23:02.445Z,8.60
2023-09-11T09:26:09.383Z,10.05
2023-09-11T09:29:12.364Z,7.97
2023-09-11T09:32:15.633Z,5.57
2023-09-11T09:35:30.348Z,9.05
2023-09-11T09:38:33.035Z,4.43
2023-09-11T09:41:35.536Z,7.32
2023-09-11T09:44:40.416Z,3.97
2023-09-11T09:47:43.061Z,5.57
2023-09-11T09:51:03.394Z,9.45
2023-09-11T09:54:05.960Z,4.50
2023-09-11T09:57:12.074Z,8.48
2023-09-11T10:00:17.885Z,6.75
2023-09-11T10:03:20.460Z,10.80
2023-09-11T10:06:28.880Z,9.10
2023-09-11T10:09:31.564Z,7.40
2023-09-11T10:12:33.994Z,6.95
2023-09-11T10:15:39.145Z,7.65
2023-09-11T10:18:46.630Z,6.18
2023-09-11T10:21:49.285Z,6.65
2023-09-11T10:24:51.732Z,12.03
2023-09-11T10:27:58.879Z,5.10
2023-09-11T10:31:46.566Z,7.45
2023-09-11T10:34:51.273Z,7.03
2023-09-11T10:37:58.630Z,6.53
2023-09-11T10:41:02.132Z,6.53
2023-09-11T10:44:05.212Z,14.27
2023-09-11T10:47:07.718Z,6.43
2023-09-11T10:50:11.252Z,5.70
2023-09-11T10:53:13.835Z,6.88
2023-09-11T10:56:17.097Z,4.77
2023-09-11T10:59:23.743Z,9.60
2023-09-11T11:02:26.378Z,6.65
2023-09-11T11:05:28.801Z,6.83
2023-09-11T11:08:35.834Z,6.93
2023-09-11T11:11:43.763Z,4.72
2023-09-11T11:15:25.979Z,6.47
2023-09-11T11:18:29.221Z,4.65
2023-09-11T11:21:41.959Z,5.82
2023-09-11T11:24:56.855Z,4.00
2023-09-11T11:28:14.637Z,4.97
2023-09-11T11:31:22.520Z,8.98
2023-09-11T11:34:36.567Z,9.40
2023-09-11T11:37:45.709Z,7.43
2023-09-11T11:40:48.760Z,7.40
2023-09-11T11:43:52.404Z,6.07
2023-09-11T11:46:54.954Z,6.50
2023-09-11T11:49:57.410Z,5.50
2023-09-11T11:52:59.848Z,4.68
2023-09-11T11:56:06.053Z,4.82
2023-09-11T11:59:08.577Z,4.87
2023-09-11T12:02:23.895Z,6.53
2023-09-11T12:05:26.454Z,5.43
2023-09-11T12:08:29.337Z,5.03
2023-09-11T12:11:34.639Z,5.57
2023-09-11T12:14:38.010Z,5.03
2023-09-11T12:17:50.961Z,4.18
2023-09-11T12:20:58.955Z,8.95
2023-09-11T12:24:01.788Z,5.63
2023-09-11T12:27:06.328Z,5.18
2023-09-11T12:30:09.880Z,3.80
2023-09-11T12:33:17.841Z,4.13
2023-09-11T12:36:23.835Z,4.43
2023-09-11T12:39:26.375Z,5.07
2023-09-11T12:42:28.809Z,6.43
2023-09-11T12:45:31.514Z,3.92
2023-09-11T12:48:41.411Z,9.10
2023-09-11T12:51:44.622Z,4.97
2023-09-11T12:54:47.736Z,3.63
2023-09-11T12:57:52.940Z,5.82
2023-09-11T13:00:58.089Z,6.13
2023-09-11T13:04:00.894Z,6.28
2023-09-11T13:07:03.658Z,3.42
2023-09-11T13:10:06.714Z,5.97
2023-09-11T13:13:15.340Z,4.50
2023-09-11T13:16:24.310Z,5.00
2023-09-11T13:19:26.854Z,3.35
2023-09-11T13:22:29.344Z,6.13
2023-09-11T13:25:31.865Z,6.80
2023-09-11T13:28:34.487Z,5.47
2023-09-11T13:31:37.692Z,3.43
2023-09-11T13:34:40.104Z,5.38
2023-09-11T13:37:43.115Z,5.05
2023-09-11T13:40:49.330Z,4.43
2023-09-11T13:43:52.220Z,4.40
2023-09-11T13:46:54.702Z,4.43
2023-09-11T13:49:57.115Z,3.65
2023-09-11T13:52:59.559Z,6.40
2023-09-11T13:56:02.058Z,5.53
2023-09-11T13:59:04.479Z,3.58
2023-09-11T14:02:07.710Z,4.73
2023-09-11T14:05:10.592Z,5.63
2023-09-11T14:08:13.045Z,4.55
2023-09-11T14:11:15.499Z,5.33
2023-09-11T14:14:17.906Z,6.35
2023-09-11T14:17:20.307Z,6.90
2023-09-11T14:20:22.705Z,4.50
2023-09-11T14:23:25.155Z,3.63
2023-09-11T14:26:27.558Z,4.57
2023-09-11T14:29:30.001Z,5.35
2023-09-11T14:32:32.430Z,4.50
2023-09-11T14:35:35.267Z,6.05
2023-09-11T14:38:37.717Z,5.60
2023-09-11T14:41:40.198Z,4.27
2023-09-11T14:44:42.685Z,3.53
2023-09-11T14:47:45.642Z,3.90
2023-09-11T14:50:49.024Z,5.10
2023-09-11T14:53:52.458Z,5.85
2023-09-11T14:56:57.781Z,4.50
2023-09-11T15:00:05.030Z,4.32
2023-09-11T15:03:07.837Z,4.03
2023-09-11T15:06:10.464Z,7.40
2023-09-11T15:09:13.005Z,3.50
2023-09-11T15:12:15.651Z,3.80
2023-09-11T15:15:18.272Z,4.80
2023-09-11T15:18:25.758Z,4.28
2023-09-11T15:21:29.224Z,5.18
2023-09-11T15:24:31.985Z,4.68
2023-09-11T15:27:34.522Z,5.95
2023-09-11T15:30:40.360Z,5.18
2023-09-11T15:33:42.854Z,3.17
2023-09-11T15:36:45.307Z,5.57
2023-09-11T15:39:47.973Z,6.25
2023-09-11T15:42:50.518Z,3.40
2023-09-11T15:45:53.004Z,3.33
2023-09-11T15:48:55.548Z,4.07
2023-09-11T15:52:04.090Z,5.65
2023-09-11T15:55:06.874Z,3.40
2023-09-11T15:58:09.312Z,6.13
2023-09-11T16:01:12.332Z,3.90
2023-09-11T16:04:14.993Z,4.93
2023-09-11T16:07:17.468Z,3.45
2023-09-11T16:10:19.871Z,6.20
2023-09-11T16:13:22.543Z,5.10
2023-09-11T16:16:25.028Z,4.65
2023-09-11T16:19:27.477Z,7.68
2023-09-11T16:22:29.864Z,9.40
2023-09-11T16:25:34.040Z,4.55
2023-09-11T16:28:36.490Z,5.68
2023-09-11T16:31:38.868Z,9.93
2023-09-11T16:34:41.367Z,3.73
2023-09-11T16:37:45.028Z,5.85
2023-09-11T16:40:47.441Z,7.28
2023-09-11T16:43:49.804Z,7.13
2023-09-11T16:46:52.410Z,4.57
2023-09-11T16:49:55.812Z,5.47
2023-09-11T16:52:59.295Z,5.65
2023-09-11T16:56:01.751Z,6.03
2023-09-11T16:59:04.231Z,8.65
2023-09-11T17:02:06.699Z,6.32
2023-09-11T17:05:10.288Z,3.93
2023-09-11T17:08:12.831Z,5.40
2023-09-11T17:11:15.209Z,6.10
2023-09-11T17:14:17.609Z,7.23
2023-09-11T17:17:19.970Z,4.97
2023-09-11T17:20:23.821Z,4.40
2023-09-11T17:23:26.394Z,5.57
2023-09-11T17:26:28.925Z,19.20
2023-09-11T17:29:31.526Z,7.00
2023-09-11T17:32:38.141Z,5.28
2023-09-11T17:35:40.726Z,3.70
2023-09-11T17:38:43.468Z,5.28
2023-09-11T17:41:46.206Z,7.15
2023-09-11T17:44:48.706Z,10.40
2023-09-11T17:47:51.159Z,7.32
2023-09-11T17:50:54.699Z,13.20
2023-09-11T17:53:57.248Z,16.17
2023-09-11T17:56:59.713Z,9.27
2023-09-11T18:00:02.445Z,7.97
2023-09-11T18:03:12.202Z,6.22
2023-09-11T18:06:14.947Z,11.03
2023-09-11T18:09:17.514Z,11.35
2023-09-11T18:12:20.020Z,11.77
2023-09-11T18:15:22.464Z,10.80
2023-09-11T18:18:25.134Z,9.15
2023-09-11T18:21:27.645Z,15.10
2023-09-11T18:24:30.118Z,14.45
2023-09-11T18:27:36.438Z,13.60
2023-09-11T18:30:40.755Z,12.48
2023-09-11T18:33:43.503Z,17.17
2023-09-11T18:36:46.872Z,18.53
2023-09-11T18:39:49.312Z,15.82
2023-09-11T18:42:52.031Z,10.55
2023-09-11T18:45:54.460Z,16.70
2023-09-11T18:48:58.570Z,11.73
2023-09-11T18:52:01.106Z,14.50
2023-09-11T18:55:04.045Z,13.13
2023-09-11T18:58:06.705Z,13.45
2023-09-11T19:01:09.275Z,14.95
2023-09-11T19:04:11.935Z,16.95
2023-09-11T19:07:15.096Z,12.20
2023-09-11T19:10:17.738Z,12.77
2023-09-11T19:13:20.364Z,8.70
2023-09-11T19:16:22.941Z,8.70
2023-09-11T19:19:25.302Z,17.92
2023-09-11T19:22:27.735Z,18.48
2023-09-11T19:25:30.378Z,17.60
2023-09-11T19:28:32.938Z,15.65
2023-09-11T19:31:36.298Z,14.75
2023-09-11T19:34:38.876Z,16.00
2023-09-11T19:37:41.345Z,20.67
2023-09-11T19:40:44.055Z,19.92
2023-09-11T19:43:47.644Z,20.98
2023-09-11T19:46:50.042Z,16.97
2023-09-11T19:49:52.498Z,16.85
2023-09-11T19:52:55.073Z,12.23
2023-09-11T19:55:57.512Z,11.43
2023-09-11T19:59:06.124Z,20.85
2023-09-11T20:02:09.796Z,15.45
2023-09-11T20:05:12.308Z,23.27
2023-09-11T20:08:14.713Z,15.00
2023-09-11T20:11:17.146Z,18.17
2023-09-11T20:14:19.642Z,14.05
2023-09-11T20:17:22.210Z,17.33
2023-09-11T20:20:24.636Z,13.82
2023-09-11T20:23:27.024Z,12.18
2023-09-11T20:26:30.094Z,15.43
2023-09-11T20:29:32.570Z,11.00
2023-09-11T20:32:36.100Z,16.48
2023-09-11T20:35:38.591Z,15.57
2023-09-11T20:38:41.514Z,11.90
2023-09-11T20:41:44.187Z,10.50
2023-09-11T20:44:46.602Z,11.38
2023-09-11T20:47:48.995Z,12.30
2023-09-11T20:50:51.434Z,12.20
2023-09-11T20:53:53.966Z,8.55
2023-09-11T20:56:56.454Z,16.70
2023-09-11T20:59:59.308Z,13.77
2023-09-11T21:03:01.850Z,9.43
2023-09-11T21:06:05.019Z,10.68
2023-09-11T21:09:07.494Z,7.30
2023-09-11T21:12:09.968Z,9.85
2023-09-11T21:15:12.496Z,11.02
2023-09-11T21:18:15.035Z,11.87
2023-09-11T21:21:17.577Z,20.52
2023-09-11T21:24:20.130Z,13.88
2023-09-11T21:27:22.593Z,10.40
2023-09-11T21:30:25.305Z,14.57
2023-09-11T21:33:29.470Z,12.75
2023-09-11T21:36:32.145Z,14.43
2023-09-11T21:39:34.929Z,13.97
2023-09-11T21:42:37.478Z,16.15
2023-09-11T21:45:44.151Z,11.68
2023-09-11T21:48:46.648Z,10.07
2023-09-11T21:51:49.310Z,11.45
2023-09-11T21:54:52.050Z,13.82
2023-09-11T21:57:54.590Z,12.63
2023-09-11T22:00:57.014Z,8.30
2023-09-11T22:03:59.922Z,10.23
2023-09-11T22:07:02.661Z,10.20
2023-09-11T22:10:05.783Z,10.17
2023-09-11T22:13:08.701Z,17.35
2023-09-11T22:16:11.154Z,10.23
2023-09-11T22:19:13.618Z,11.80
2023-09-11T22:22:16.105Z,10.80
2023-09-11T22:25:18.557Z,15.05
2023-09-11T22:28:20.957Z,11.93
2023-09-11T22:31:23.353Z,11.30
2023-09-11T22:34:25.929Z,9.30
2023-09-11T22:37:28.602Z,11.63
2023-09-11T22:40:31.510Z,9.00
2023-09-11T22:43:33.948Z,7.75
2023-09-11T22:46:36.488Z,14.48
2023-09-11T22:49:38.899Z,7.00
2023-09-11T22:52:41.239Z,10.50
2023-09-11T22:55:45.546Z,10.07
2023-09-11T22:58:47.956Z,9.15
2023-09-11T23:01:50.404Z,7.93
2023-09-11T23:04:52.929Z,14.30
2023-09-11T23:07:55.316Z,9.60
2023-09-11T23:10:57.818Z,10.23
2023-09-11T23:14:00.278Z,8.35
2023-09-11T23:17:02.711Z,9.00
2023-09-11T23:20:08.821Z,9.83
2023-09-11T23:23:11.223Z,11.18
2023-09-11T23:26:13.845Z,9.80
2023-09-11T23:29:16.230Z,13.13
2023-09-11T23:32:18.653Z,8.45
2023-09-11T23:35:21.037Z,10.73
2023-09-11T23:38:23.390Z,9.85
2023-09-11T23:41:27.353Z,11.57
2023-09-11T23:44:29.791Z,9.45
2023-09-11T23:47:32.516Z,9.95
2023-09-11T23:50:35.413Z,6.43
2023-09-11T23:53:37.980Z,8.50
2023-09-11T23:56:43.153Z,8.70
2023-09-11T23:59:45.981Z,10.90
